Time;durP1;ratioP1;P1;durP2;ratioP2;P2;SDS_P1;SDS_P2;PMS_P1;PMS_P2;Temp;Humidity;BMP_temperature;BMP_pressure;BME280_temperature;BME280_humidity;BME280_pressure;Samples;Min_cycle;Max_cycle;Signal;HPM_P1;HPM_P2
2021/12/11 00:00:03;;;;;;;9.93;7.15;;;;;;;1.22;100.00;100233.66;4997187;28;20372;-75
2021/12/11 00:02:32;;;;;;;10.40;7.68;;;;;;;1.18;100.00;100228.66;5004032;28;20025;-75
2021/12/11 00:04:58;;;;;;;10.05;7.40;;;;;;;1.18;100.00;100233.94;5016480;28;20447;-75
2021/12/11 00:07:28;;;;;;;9.48;7.00;;;;;;;1.06;100.00;100213.13;4998303;28;20053;-75
2021/12/11 00:10:19;;;;;;;11.93;7.47;;;;;;;1.12;100.00;100239.03;5015613;28;20033;-76
2021/12/11 00:12:53;;;;;;;11.02;7.40;;;;;;;1.14;100.00;100240.53;5015772;28;20109;-75
2021/12/11 00:15:24;;;;;;;13.43;7.55;;;;;;;1.11;100.00;100248.78;5015663;28;20018;-75
2021/12/11 00:18:04;;;;;;;12.20;7.78;;;;;;;1.03;100.00;100214.28;5014887;28;20037;-75
2021/12/11 00:20:32;;;;;;;11.15;7.70;;;;;;;1.15;100.00;100238.72;5015228;28;20037;-74
2021/12/11 00:22:58;;;;;;;10.77;7.90;;;;;;;1.23;100.00;100249.41;5016444;28;20065;-75
2021/12/11 00:25:24;;;;;;;10.45;7.60;;;;;;;1.04;100.00;100225.72;5014218;28;20034;-75
2021/12/11 00:27:52;;;;;;;11.18;8.70;;;;;;;1.19;100.00;100245.38;5016036;28;20356;-75
2021/12/11 00:30:27;;;;;;;12.73;7.95;;;;;;;1.06;100.00;100229.03;5017014;28;20041;-74
2021/12/11 00:32:57;;;;;;;;;;;;;;;1.20;100.00;100248.88;5020321;28;20045;-75
2021/12/11 00:35:23;;;;;;;10.25;7.47;;;;;;;1.15;100.00;100252.81;5014207;28;20294;-74
2021/12/11 00:37:49;;;;;;;11.88;7.85;;;;;;;1.20;100.00;100255.00;5014504;28;20036;-74
2021/12/11 00:40:25;;;;;;;12.95;8.00;;;;;;;1.24;100.00;100252.88;5013705;28;20403;-75
2021/12/11 00:42:53;;;;;;;11.70;8.68;;;;;;;1.13;100.00;100243.34;5015515;28;20018;-75
2021/12/11 00:45:22;;;;;;;14.20;9.07;;;;;;;1.19;100.00;100255.97;5014044;28;20035;-75
2021/12/11 00:47:52;;;;;;;15.23;9.20;;;;;;;1.21;100.00;100263.78;5013422;28;20460;-74
2021/12/11 00:50:22;;;;;;;13.15;9.35;;;;;;;1.26;100.00;100264.16;5015812;28;20042;-75
2021/12/11 00:52:54;;;;;;;12.55;9.00;;;;;;;1.02;100.00;100222.38;5015801;28;20030;-74
2021/12/11 00:55:31;;;;;;;13.82;9.32;;;;;;;1.01;100.00;100226.03;5015069;28;20033;-75
2021/12/11 00:58:11;;;;;;;13.73;9.00;;;;;;;1.10;100.00;100248.97;5022523;28;20022;-75
2021/12/11 01:00:44;;;;;;;15.50;10.15;;;;;;;1.25;100.00;100267.78;5003132;28;20034;-75
2021/12/11 01:03:11;;;;;;;15.48;10.00;;;;;;;1.20;100.00;100264.78;4995247;28;20022;-75
2021/12/11 01:05:43;;;;;;;14.60;9.68;;;;;;;1.19;100.00;100266.56;5011384;28;20345;-75
2021/12/11 01:08:19;;;;;;;14.30;10.15;;;;;;;1.17;100.00;100268.56;5015327;28;20061;-75
2021/12/11 01:10:45;;;;;;;14.60;10.10;;;;;;;1.20;100.00;100278.88;5012803;28;20518;-75
2021/12/11 01:13:14;;;;;;;14.70;9.98;;;;;;;1.20;100.00;100272.75;4995106;28;20512;-75
2021/12/11 01:15:48;;;;;;;14.27;10.15;;;;;;;1.30;100.00;100286.75;5014314;28;20439;-74
2021/12/11 01:21:03;;;;;;;15.18;10.95;;;;;;;1.33;100.00;100295.22;5015706;28;20113;-75
2021/12/11 01:26:03;;;;;;;16.30;10.75;;;;;;;1.38;100.00;100302.69;5014536;28;20107;-75
2021/12/11 01:28:29;;;;;;;17.27;10.15;;;;;;;1.38;100.00;100298.22;5001343;28;20341;-74
2021/12/11 01:30:56;;;;;;;15.00;10.32;;;;;;;1.39;100.00;100299.06;4988293;28;20033;-74
2021/12/11 01:33:21;;;;;;;18.88;10.75;;;;;;;1.40;100.00;100301.56;4984933;28;20042;-75
2021/12/11 01:35:48;;;;;;;13.60;10.00;;;;;;;1.43;100.00;100310.22;5006009;28;20021;-75
2021/12/11 01:38:18;;;;;;;15.35;10.38;;;;;;;1.35;100.00;100303.84;5003744;28;20046;-75
2021/12/11 01:40:47;;;;;;;15.88;10.75;;;;;;;1.33;100.00;100299.69;5004639;28;20045;-75
2021/12/11 01:43:13;;;;;;;15.88;10.55;;;;;;;1.44;100.00;100319.84;5014659;28;20080;-74
2021/12/11 01:45:44;;;;;;;14.73;10.55;;;;;;;1.35;100.00;100300.34;5012372;28;20490;-75
2021/12/11 01:48:09;;;;;;;14.88;10.55;;;;;;;1.38;100.00;100316.78;5014106;28;20348;-74
2021/12/11 01:50:40;;;;;;;14.82;10.88;;;;;;;1.42;100.00;100325.28;5013575;28;20038;-74
2021/12/11 01:53:19;;;;;;;16.13;10.85;;;;;;;1.48;100.00;100331.78;5014393;28;20450;-74
2021/12/11 01:56:05;;;;;;;17.33;11.77;;;;;;;1.40;100.00;100327.25;5012514;28;20368;-74
2021/12/11 01:58:41;;;;;;;18.83;11.30;;;;;;;1.35;100.00;100326.84;5014796;28;20026;-75
2021/12/11 02:01:12;;;;;;;16.95;11.43;;;;;;;1.51;100.00;100350.06;5013741;28;20030;-74
2021/12/11 02:03:39;;;;;;;17.35;11.55;;;;;;;1.40;100.00;100343.16;5014640;28;20030;-75
2021/12/11 02:06:05;;;;;;;16.85;11.40;;;;;;;1.46;100.00;100350.50;5013572;28;20056;-77
2021/12/11 02:08:34;;;;;;;15.50;11.45;;;;;;;1.31;100.00;100334.28;5013512;28;20033;-74
2021/12/11 02:11:08;;;;;;;15.90;10.73;;;;;;;1.43;100.00;100349.97;5014005;28;20325;-75
2021/12/11 02:13:47;;;;;;;16.97;11.40;;;;;;;1.31;100.00;100334.28;5012392;28;20026;-74
2021/12/11 02:16:25;;;;;;;17.55;10.90;;;;;;;1.36;100.00;100358.53;5014105;28;20276;-74
2021/12/11 02:18:55;;;;;;;16.60;11.20;;;;;;;1.35;100.00;100354.19;5026502;28;20030;-75
2021/12/11 02:21:27;;;;;;;15.95;11.25;;;;;;;1.04;100.00;100316.63;5014124;28;20037;-74
2021/12/11 02:23:58;;;;;;;18.60;11.88;;;;;;;1.21;100.00;100356.53;5012388;28;20030;-74
2021/12/11 02:26:25;;;;;;;17.75;12.38;;;;;;;1.05;100.00;100334.19;5012642;28;20088;-75
2021/12/11 02:29:04;;;;;;;19.55;12.60;;;;;;;1.16;100.00;100363.13;4995648;28;20037;-74
2021/12/11 02:32:03;;;;;;;17.73;12.23;;;;;;;1.20;100.00;100366.31;5012445;28;20041;-75
2021/12/11 02:34:48;;;;;;;18.00;12.35;;;;;;;1.22;100.00;100366.97;5012848;28;20632;-74
2021/12/11 02:37:16;;;;;;;18.38;12.88;;;;;;;1.17;100.00;100370.09;5010915;28;20377;-74
2021/12/11 02:39:50;;;;;;;19.38;13.07;;;;;;;1.17;100.00;100363.97;5012877;28;20026;-74
2021/12/11 02:42:31;;;;;;;17.38;12.43;;;;;;;1.13;100.00;100357.31;5010876;28;20055;-75
2021/12/11 02:44:56;;;;;;;19.52;13.63;;;;;;;1.24;100.00;100378.28;5014715;28;20129;-75
2021/12/11 02:47:41;;;;;;;20.63;13.07;;;;;;;1.15;100.00;100360.63;5013415;28;20061;-75
2021/12/11 02:50:26;;;;;;;19.30;13.25;;;;;;;1.13;100.00;100367.91;5013868;28;20041;-76
2021/12/11 02:53:04;;;;;;;18.33;12.82;;;;;;;1.27;100.00;100388.59;5014537;28;20036;-75
2021/12/11 02:55:39;;;;;;;21.70;14.40;;;;;;;1.06;100.00;100358.84;5013103;28;20034;-75
2021/12/11 02:58:10;;;;;;;20.27;13.95;;;;;;;1.23;100.00;100384.56;5016490;28;20034;-75
2021/12/11 03:00:41;;;;;;;20.90;13.73;;;;;;;1.26;100.00;100386.06;5012195;28;20363;-75
2021/12/11 03:03:11;;;;;;;20.90;14.07;;;;;;;1.13;100.00;100378.50;5012890;28;20065;-75
2021/12/11 03:05:59;;;;;;;21.42;14.82;;;;;;;1.23;100.00;100384.56;5012968;28;20091;-75
2021/12/11 03:08:25;;;;;;;20.90;14.07;;;;;;;1.23;100.00;100379.28;5011998;28;20072;-75
2021/12/11 03:10:55;;;;;;;20.95;13.80;;;;;;;1.22;100.00;100390.00;4996950;28;20057;-75
2021/12/11 03:13:22;;;;;;;20.90;14.55;;;;;;;1.16;100.00;100383.50;5024880;28;20021;-75
2021/12/11 03:15:49;;;;;;;22.77;14.55;;;;;;;1.10;100.00;100382.28;5018362;28;20026;-75
2021/12/11 03:18:14;;;;;;;24.05;15.70;;;;;;;1.02;100.00;100370.75;5001684;28;20037;-75
2021/12/11 03:20:42;;;;;;;23.13;16.00;;;;;;;1.18;100.00;100387.66;5023602;28;20030;-76
2021/12/11 03:23:08;;;;;;;25.55;15.43;;;;;;;1.15;100.00;100379.16;5023289;28;20056;-75
2021/12/11 03:25:34;;;;;;;25.73;16.80;;;;;;;1.01;100.00;100371.72;5014721;28;20491;-75
2021/12/11 03:28:01;;;;;;;23.23;15.77;;;;;;;1.06;100.00;100380.06;5017042;28;20022;-75
2021/12/11 03:30:30;;;;;;;24.63;16.83;;;;;;;1.00;100.00;100375.38;5015225;28;20034;-75
2021/12/11 03:33:03;;;;;;;31.35;18.20;;;;;;;0.90;100.00;100373.59;5016582;28;20021;-75
2021/12/11 03:35:29;;;;;;;27.60;18.67;;;;;;;0.76;100.00;100360.81;5032610;28;20068;-75
2021/12/11 03:37:55;;;;;;;30.23;19.02;;;;;;;1.00;100.00;100396.56;5015997;28;20057;-75
2021/12/11 03:40:22;;;;;;;27.80;18.35;;;;;;;0.89;100.00;100390.47;5028199;28;20392;-75
2021/12/11 03:42:50;;;;;;;29.08;18.48;;;;;;;1.01;100.00;100401.69;4996677;28;20033;-75
2021/12/11 03:45:21;;;;;;;27.52;18.50;;;;;;;0.96;100.00;100409.28;5009959;28;20121;-75
2021/12/11 03:47:52;;;;;;;29.75;19.23;;;;;;;0.94;100.00;100387.38;5015901;28;20084;-75
2021/12/11 03:50:22;;;;;;;29.65;19.38;;;;;;;0.96;100.00;100401.31;5015164;28;20084;-75
2021/12/11 03:52:51;;;;;;;29.83;18.58;;;;;;;0.92;100.00;100418.47;5016035;28;20101;-75
2021/12/11 03:55:23;;;;;;;27.77;17.70;;;;;;;0.92;100.00;100419.28;5015108;28;20064;-75
2021/12/11 03:57:55;;;;;;;28.95;18.38;;;;;;;1.04;100.00;100416.47;5030641;28;20026;-75
2021/12/11 04:00:22;;;;;;;28.85;19.33;;;;;;;1.01;100.00;100416.75;5015674;28;20096;-75
2021/12/11 04:02:49;;;;;;;28.58;18.92;;;;;;;1.02;100.00;100418.44;5013844;28;20416;-76
2021/12/11 04:05:15;;;;;;;28.10;18.70;;;;;;;1.09;100.00;100436.25;5014857;28;20036;-75
2021/12/11 04:07:46;;;;;;;27.55;19.23;;;;;;;1.06;100.00;100417.16;4998605;28;20037;-75
2021/12/11 04:10:15;;;;;;;28.98;18.77;;;;;;;0.83;100.00;100399.00;5014838;28;20040;-75
2021/12/11 04:12:41;;;;;;;26.80;17.23;;;;;;;1.01;100.00;100432.66;5020658;28;20347;-75
2021/12/11 04:15:09;;;;;;;31.00;19.75;;;;;;;1.02;100.00;100431.66;5019484;28;20115;-75
2021/12/11 04:17:36;;;;;;;27.70;18.52;;;;;;;1.10;100.00;100445.03;5016179;28;20072;-75
2021/12/11 04:20:09;;;;;;;28.13;17.30;;;;;;;0.81;100.00;100408.06;5014867;28;20533;-75
2021/12/11 04:22:34;;;;;;;29.35;18.35;;;;;;;1.02;100.00;100450.22;5013856;28;20048;-76
2021/12/11 04:25:00;;;;;;;30.40;19.02;;;;;;;0.96;100.00;100442.84;5015178;28;20025;-75
2021/12/11 04:27:27;;;;;;;30.15;18.75;;;;;;;0.93;100.00;100446.66;4999340;28;20054;-76
2021/12/11 04:29:53;;;;;;;28.30;18.10;;;;;;;0.66;100.00;100407.69;5015401;28;20076;-75
2021/12/11 04:32:22;;;;;;;27.27;17.52;;;;;;;0.92;100.00;100451.09;5015925;28;20032;-75
2021/12/11 04:34:48;;;;;;;31.42;18.75;;;;;;;0.93;100.00;100450.13;5013795;28;20033;-75
2021/12/11 04:37:22;;;;;;;27.48;17.70;;;;;;;0.90;100.00;100458.38;5028602;28;20044;-75
2021/12/11 04:39:56;;;;;;;27.27;17.92;;;;;;;0.82;100.00;100447.63;5014279;28;20026;-75
2021/12/11 04:42:39;;;;;;;25.55;16.55;;;;;;;0.97;100.00;100471.84;5028111;28;20445;-75
2021/12/11 04:45:09;;;;;;;27.35;17.73;;;;;;;1.00;100.00;100470.75;5015527;28;20030;-75
2021/12/11 04:47:45;;;;;;;29.77;18.67;;;;;;;0.99;100.00;100475.19;5014130;28;20018;-75
2021/12/11 04:50:22;;;;;;;29.42;18.77;;;;;;;1.04;100.00;100480.88;4983592;28;20376;-76
2021/12/11 04:52:55;;;;;;;32.92;19.55;;;;;;;0.96;100.00;100477.28;5014925;28;20017;-75
2021/12/11 05:06:35;;;;;;;31.08;19.10;;;;;;;0.83;100.00;100472.31;5001818;28;20048;-75
2021/12/11 05:12:05;;;;;;;34.23;20.80;;;;;;;0.86;100.00;100485.25;5011947;28;20021;-76
2021/12/11 05:14:31;;;;;;;31.17;19.10;;;;;;;0.82;100.00;100481.25;5013601;28;20478;-75
2021/12/11 05:16:56;;;;;;;30.38;19.35;;;;;;;0.73;100.00;100459.13;5014496;28;20026;-75
2021/12/11 05:19:22;;;;;;;31.20;20.30;;;;;;;1.03;100.00;100496.94;5016761;28;20563;-75
2021/12/11 05:21:47;;;;;;;30.58;19.60;;;;;;;0.94;100.00;100475.63;5017234;28;20404;-75
2021/12/11 05:24:17;;;;;;;32.08;20.50;;;;;;;1.02;100.00;100503.19;5014788;28;20030;-75
2021/12/11 05:26:43;;;;;;;33.88;20.58;;;;;;;0.92;100.00;100490.81;5012716;28;20045;-75
2021/12/11 05:29:09;;;;;;;34.47;20.00;;;;;;;1.01;100.00;100506.84;5013559;28;20064;-75
2021/12/11 05:31:36;;;;;;;29.08;19.52;;;;;;;0.89;100.00;100483.19;5013750;28;20041;-75
2021/12/11 05:34:03;;;;;;;32.38;20.30;;;;;;;1.04;100.00;100504.75;5013079;28;20053;-75
2021/12/11 05:36:31;;;;;;;32.53;19.60;;;;;;;1.00;100.00;100510.47;5013873;28;20440;-75
2021/12/11 05:38:57;;;;;;;28.52;18.95;;;;;;;0.86;100.00;100494.06;5013824;28;20033;-75
2021/12/11 05:41:23;;;;;;;30.90;19.48;;;;;;;0.98;100.00;100517.72;5014366;28;20112;-76
2021/12/11 05:43:50;;;;;;;31.05;19.42;;;;;;;0.92;100.00;100509.34;5017202;28;20106;-75
2021/12/11 05:46:17;;;;;;;27.38;18.35;;;;;;;0.67;100.00;100472.94;5020226;28;20037;-75
2021/12/11 05:48:45;;;;;;;30.00;19.08;;;;;;;0.98;100.00;100520.38;5019035;28;20026;-75
2021/12/11 05:51:13;;;;;;;32.42;19.98;;;;;;;0.94;100.00;100520.66;5029092;28;20030;-75
2021/12/11 05:53:39;;;;;;;31.05;19.23;;;;;;;0.88;100.00;100515.09;4996717;28;20109;-75
2021/12/11 05:56:11;;;;;;;30.25;19.08;;;;;;;0.91;100.00;100528.91;5011436;28;20447;-75
2021/12/11 06:01:33;;;;;;;29.98;20.50;;;;;;;1.02;100.00;100541.13;5010629;28;20061;-76
2021/12/11 06:04:04;;;;;;;33.45;21.45;;;;;;;1.09;100.00;100539.59;5014066;28;20053;-75
2021/12/11 06:06:30;;;;;;;31.92;20.15;;;;;;;1.02;100.00;100525.22;5014323;28;20040;-75
2021/12/11 06:08:56;;;;;;;33.35;21.02;;;;;;;1.14;100.00;100539.16;5014655;28;20026;-75
2021/12/11 06:11:22;;;;;;;32.65;21.27;;;;;;;1.10;100.00;100545.72;5011974;28;20364;-75
2021/12/11 06:13:49;;;;;;;35.78;22.27;;;;;;;1.17;100.00;100552.13;5012717;28;20054;-75
2021/12/11 06:16:15;;;;;;;34.30;21.83;;;;;;;1.07;100.00;100548.66;5011606;28;20033;-75
2021/12/11 06:18:44;;;;;;;34.97;21.23;;;;;;;1.17;100.00;100554.78;5011478;28;20021;-75
2021/12/11 06:21:10;;;;;;;36.58;22.50;;;;;;;1.21;100.00;100561.44;5006960;28;20038;-76
2021/12/11 06:23:37;;;;;;;34.15;22.50;;;;;;;1.24;100.00;100566.47;5013100;28;20083;-76
2021/12/11 06:26:04;;;;;;;35.28;22.50;;;;;;;1.21;100.00;100561.44;5013774;28;20679;-76
2021/12/11 06:28:30;;;;;;;33.92;22.17;;;;;;;1.25;100.00;100564.63;5012434;28;20060;-76
2021/12/11 06:30:58;;;;;;;32.88;22.08;;;;;;;1.13;100.00;100569.28;5013925;28;20073;-76
2021/12/11 06:33:25;;;;;;;36.15;22.35;;;;;;;1.07;100.00;100560.09;5016168;28;20041;-76
2021/12/11 06:36:08;;;;;;;35.92;22.42;;;;;;;1.15;100.00;100567.31;5017742;28;20044;-76
2021/12/11 06:38:35;;;;;;;33.50;21.08;;;;;;;1.15;100.00;100562.84;4999133;28;20065;-75
2021/12/11 06:41:02;;;;;;;33.85;21.83;;;;;;;1.26;100.00;100576.91;4997469;28;20038;-75
2021/12/11 06:43:28;;;;;;;40.10;21.80;;;;;;;1.22;100.00;100567.56;5012436;28;20037;-77
2021/12/11 06:45:54;;;;;;;33.55;22.45;;;;;;;1.27;100.00;100571.47;5014253;28;20042;-75
2021/12/11 06:48:20;;;;;;;32.70;21.85;;;;;;;1.26;100.00;100568.94;5010983;28;20085;-75
2021/12/11 06:50:46;;;;;;;37.17;23.25;;;;;;;1.28;100.00;100570.47;5014074;28;20065;-76
2021/12/11 06:53:23;;;;;;;37.70;22.60;;;;;;;0.92;100.00;100517.31;5012076;28;20603;-75
2021/12/11 06:55:49;;;;;;;33.95;22.60;;;;;;;1.35;100.00;100590.13;5013593;28;20037;-76
2021/12/11 06:58:15;;;;;;;37.75;23.15;;;;;;;1.36;100.00;100586.50;5010815;28;20115;-75
2021/12/11 07:00:40;;;;;;;40.20;24.55;;;;;;;1.16;100.00;100553.94;5012275;28;20395;-76
2021/12/11 07:03:05;;;;;;;40.50;24.85;;;;;;;0.87;100.00;100524.88;4995632;28;20061;-76
2021/12/11 07:05:33;;;;;;;36.92;23.58;;;;;;;1.30;100.00;100592.38;5010490;28;20061;-76
2021/12/11 07:07:59;;;;;;;55.55;33.90;;;;;;;1.25;100.00;100584.03;5012572;28;20040;-76
2021/12/11 07:10:24;;;;;;;43.88;27.63;;;;;;;1.28;100.00;100598.81;5011858;28;20030;-76
2021/12/11 07:12:50;;;;;;;40.88;26.38;;;;;;;1.20;100.00;100585.47;5017249;28;20129;-76
2021/12/11 07:15:18;;;;;;;41.00;26.35;;;;;;;1.26;100.00;100606.06;5014568;28;20037;-76
2021/12/11 07:17:43;;;;;;;41.88;26.13;;;;;;;1.24;100.00;100590.31;5013434;28;20069;-76
2021/12/11 07:20:12;;;;;;;44.97;28.15;;;;;;;1.36;100.00;100612.19;5012819;28;20054;-75
2021/12/11 07:22:40;;;;;;;44.42;28.13;;;;;;;1.31;100.00;100599.34;5014538;28;20156;-75
2021/12/11 07:25:23;;;;;;;42.80;27.10;;;;;;;1.24;100.00;100592.13;5017104;28;20060;-75
2021/12/11 07:27:49;;;;;;;40.20;26.27;;;;;;;1.39;100.00;100618.03;5002757;28;20472;-75
2021/12/11 07:30:15;;;;;;;40.45;25.50;;;;;;;1.34;100.00;100620.28;4987918;28;20034;-75
2021/12/11 07:32:40;;;;;;;37.25;25.05;;;;;;;1.16;100.00;100600.81;5013219;28;20022;-76
2021/12/11 07:35:07;;;;;;;39.58;24.02;;;;;;;1.25;100.00;100622.94;5012994;28;20412;-75
2021/12/11 07:37:35;;;;;;;36.10;22.55;;;;;;;1.29;100.00;100629.63;5013160;28;20547;-75
2021/12/11 07:40:01;;;;;;;36.63;23.50;;;;;;;1.27;100.00;100631.59;5007686;28;20037;-75
2021/12/11 07:42:26;;;;;;;37.25;22.80;;;;;;;1.31;100.00;100643.59;5002656;28;20026;-75
2021/12/11 07:44:53;;;;;;;36.38;23.85;;;;;;;1.30;100.00;100644.56;4993737;28;20030;-75
2021/12/11 07:47:18;;;;;;;35.70;22.60;;;;;;;0.79;100.00;100568.94;5001644;28;20034;-75
2021/12/11 07:49:44;;;;;;;38.35;22.80;;;;;;;1.23;100.00;100649.59;5001192;28;20099;-78
2021/12/11 07:52:09;;;;;;;38.50;22.58;;;;;;;1.13;100.00;100644.31;4979834;28;20042;-75
2021/12/11 07:54:35;;;;;;;37.05;22.83;;;;;;;1.17;100.00;100656.31;5009628;28;20124;-75
2021/12/11 07:57:01;;;;;;;38.45;22.90;;;;;;;1.12;100.00;100655.03;5000924;28;20026;-75
2021/12/11 07:59:26;;;;;;;37.28;22.98;;;;;;;1.18;100.00;100662.44;5014206;28;20057;-75
2021/12/11 08:01:53;;;;;;;36.22;22.45;;;;;;;1.18;100.00;100659.78;5008598;28;20061;-75
2021/12/11 08:04:20;;;;;;;39.50;23.13;;;;;;;1.19;100.00;100669.41;5012883;28;20026;-76
2021/12/11 08:06:45;;;;;;;37.67;23.85;;;;;;;1.23;100.00;100670.81;5016267;28;20040;-75
2021/12/11 08:09:14;;;;;;;41.13;23.90;;;;;;;1.23;100.00;100678.75;5015388;28;20026;-76
2021/12/11 08:11:41;;;;;;;39.05;24.00;;;;;;;1.25;100.00;100684.75;5016161;28;20371;-75
2021/12/11 08:14:08;;;;;;;42.58;25.27;;;;;;;1.25;100.00;100690.03;5006690;28;20088;-76
2021/12/11 08:16:44;;;;;;;40.97;24.52;;;;;;;1.23;100.00;100686.72;5014159;28;20034;-75
2021/12/11 08:19:11;;;;;;;44.83;25.73;;;;;;;1.20;100.00;100681.69;5017405;28;20120;-76
2021/12/11 08:21:36;;;;;;;40.83;25.52;;;;;;;1.12;100.00;100679.72;5016557;28;20032;-75
2021/12/11 08:24:05;;;;;;;39.50;24.25;;;;;;;1.23;100.00;100707.91;5015117;28;20379;-75
2021/12/11 08:26:32;;;;;;;35.83;22.30;;;;;;;1.22;100.00;100700.91;4995734;28;20041;-76
2021/12/11 08:28:58;;;;;;;41.70;24.58;;;;;;;1.15;100.00;100692.69;5014806;28;20076;-76
2021/12/11 08:31:23;;;;;;;37.25;24.08;;;;;;;1.11;100.00;100678.06;5016021;28;20046;-76
2021/12/11 08:33:50;;;;;;;39.25;24.13;;;;;;;1.31;100.00;100705.38;5013061;28;20026;-75
2021/12/11 08:36:16;;;;;;;37.92;23.10;;;;;;;1.28;100.00;100703.00;5013829;28;20022;-75
2021/12/11 08:38:42;;;;;;;40.28;24.85;;;;;;;1.05;100.00;100661.91;5014693;28;20030;-75
2021/12/11 08:41:10;;;;;;;39.53;24.08;;;;;;;1.37;100.00;100718.06;5013184;28;20454;-75
2021/12/11 08:43:36;;;;;;;38.95;23.48;;;;;;;1.39;100.00;100715.28;5015884;28;20452;-75
2021/12/11 08:46:12;;;;;;;39.35;23.90;;;;;;;1.43;100.00;100727.28;5017475;28;20052;-75
2021/12/11 08:48:42;;;;;;;36.75;23.58;;;;;;;1.50;100.00;100722.25;5022520;28;20032;-75
2021/12/11 08:51:21;;;;;;;36.03;22.92;;;;;;;1.32;100.00;100691.16;5020035;28;20090;-75
2021/12/11 08:53:50;;;;;;;37.72;23.52;;;;;;;1.48;100.00;100711.78;5022659;28;20022;-75
2021/12/11 08:56:18;;;;;;;40.28;24.02;;;;;;;1.59;100.00;100721.38;5020061;28;21048;-75
2021/12/11 08:58:47;;;;;;;42.70;24.67;;;;;;;1.49;100.00;100697.56;5020235;28;20038;-76
2021/12/11 09:01:26;;;;;;;38.22;24.77;;;;;;;1.61;100.00;100720.25;5016364;28;20033;-76
2021/12/11 09:04:00;;;;;;;39.10;25.23;;;;;;;1.16;100.00;100659.13;5014435;28;20091;-76
2021/12/11 09:06:34;;;;;;;39.53;25.75;;;;;;;1.56;100.00;100721.69;5005497;28;20042;-76
2021/12/11 09:09:22;;;;;;;37.63;24.27;;;;;;;1.67;100.00;100726.00;5004203;28;20108;-76
2021/12/11 09:11:55;;;;;;;36.80;22.73;;;;;;;1.56;100.00;100708.44;5004012;28;20010;-76
2021/12/11 09:15:10;;;;;;;36.13;22.67;;;;;;;1.65;100.00;100724.28;5010888;28;20157;-77
2021/12/11 09:17:45;;;;;;;36.10;22.60;;;;;;;1.65;100.00;100720.81;5011162;28;20038;-78
2021/12/11 09:20:20;;;;;;;34.70;22.33;;;;;;;1.77;100.00;100742.72;5017186;28;20025;-79
2021/12/11 09:22:54;;;;;;;38.40;24.13;;;;;;;1.72;100.00;100721.91;5018289;28;20036;-80
2021/12/11 09:25:29;;;;;;;36.83;23.53;;;;;;;1.77;100.00;100735.59;5018393;28;20051;-81
2021/12/11 09:27:59;;;;;;;37.30;23.05;;;;;;;1.70;100.00;100721.22;5033385;28;20029;-80
2021/12/11 11:50:04;;;;;;;34.10;20.65;;;;;;;2.26;100.00;100884.94;5875472;24;20035;31
2021/12/11 13:14:00;;;;;;;202.27;174.13;;;;;;;1.70;100.00;100964.44;5851234;24;20051;31
2021/12/11 13:23:20;;;;;;;69.50;46.42;;;;;;;-0.45;100.00;100676.06;5117223;23;20248;-81
2021/12/11 13:33:32;;;;;;;61.65;42.72;;;;;;;-0.03;100.00;100769.38;5458973;23;20300;-81
2021/12/11 13:36:04;;;;;;;56.13;37.17;;;;;;;1.05;100.00;100932.16;4865907;29;20041;-78
2021/12/11 13:38:31;;;;;;;45.22;28.80;;;;;;;1.14;100.00;100941.97;4847715;29;20033;-79
2021/12/11 13:41:08;;;;;;;57.58;36.88;;;;;;;1.25;100.00;100967.53;4847038;29;20052;-79
2021/12/11 13:43:35;;;;;;;47.13;29.25;;;;;;;1.10;100.00;100943.22;4846533;29;20037;-80
2021/12/11 13:46:01;;;;;;;49.20;30.17;;;;;;;1.17;100.00;100968.22;4827764;29;20044;-80
2021/12/11 13:48:27;;;;;;;43.63;27.73;;;;;;;1.20;100.00;100972.41;4860508;29;20030;-80
2021/12/11 13:50:57;;;;;;;43.72;25.88;;;;;;;1.12;100.00;100971.25;4832593;29;20056;-80
2021/12/11 13:53:24;;;;;;;51.70;32.97;;;;;;;1.15;100.00;100976.28;4859436;29;20017;-79
2021/12/11 13:55:53;;;;;;;47.88;30.13;;;;;;;1.16;100.00;100985.09;4846760;29;20373;-80
2021/12/11 13:58:18;;;;;;;38.75;24.90;;;;;;;1.18;100.00;100991.91;4853921;29;20388;-79
2021/12/11 14:00:55;;;;;;;43.75;27.23;;;;;;;1.18;100.00;100986.63;4842773;29;20033;-79
2021/12/11 14:03:23;;;;;;;44.13;24.63;;;;;;;1.09;100.00;100987.44;4863265;29;20037;-79
2021/12/11 14:05:51;;;;;;;42.72;26.05;;;;;;;1.17;100.00;101000.00;4861266;29;20041;-80
2021/12/11 14:08:19;;;;;;;41.70;25.10;;;;;;;1.06;100.00;100998.31;4860904;29;20116;-80
2021/12/11 14:10:46;;;;;;;52.17;31.48;;;;;;;0.86;100.00;100965.59;4827952;29;20453;-79
2021/12/11 14:13:13;;;;;;;43.17;26.05;;;;;;;0.91;100.00;100986.38;4834703;29;20041;-80
2021/12/11 14:15:41;;;;;;;42.03;26.83;;;;;;;1.06;100.00;101014.19;4858260;29;20030;-80
2021/12/11 14:18:08;;;;;;;40.88;25.85;;;;;;;1.05;100.00;101009.84;4875669;29;20044;-81
2021/12/11 14:20:35;;;;;;;43.30;24.55;;;;;;;1.03;100.00;101013.63;4865425;29;20033;-79
2021/12/11 14:23:03;;;;;;;41.42;26.67;;;;;;;1.05;100.00;101022.28;4856723;29;20037;-80
2021/12/11 14:25:32;;;;;;;42.45;25.15;;;;;;;1.05;100.00;101025.75;4864914;29;20086;-81
2021/12/11 14:28:00;;;;;;;46.28;26.55;;;;;;;1.07;100.00;101028.28;4847604;29;20460;-79
2021/12/11 14:30:26;;;;;;;47.28;28.70;;;;;;;1.07;100.00;101025.63;4862178;29;20029;-79
2021/12/11 14:32:54;;;;;;;48.20;26.27;;;;;;;1.04;100.00;101026.72;4847132;29;20453;-80
2021/12/11 14:35:26;;;;;;;44.17;27.13;;;;;;;0.26;100.00;100900.16;4856596;29;20045;-81
2021/12/11 14:37:53;;;;;;;43.22;26.92;;;;;;;-0.10;100.00;100857.31;4929567;24;20038;-82
2021/12/11 14:48:06;;;;;;;47.33;26.08;;;;;;;0.85;100.00;101030.09;5621308;23;20054;-81
2021/12/11 14:50:38;;;;;;;44.88;24.40;;;;;;;0.53;100.00;100979.91;4841940;29;20046;-79
2021/12/11 14:53:07;;;;;;;47.20;26.35;;;;;;;0.81;100.00;101031.34;4843848;29;20032;-79
2021/12/11 14:55:44;;;;;;;45.70;25.83;;;;;;;0.88;100.00;101045.75;4842341;29;20033;-79
2021/12/11 14:58:10;;;;;;;45.97;25.75;;;;;;;0.74;100.00;101032.84;4843338;29;20033;-79
2021/12/11 15:00:39;;;;;;;46.80;26.98;;;;;;;0.86;100.00;101065.38;4861506;29;20064;-79
2021/12/11 15:03:05;;;;;;;47.38;26.63;;;;;;;0.81;100.00;101073.72;4858238;29;20215;-79
2021/12/11 15:05:40;;;;;;;46.30;26.83;;;;;;;0.64;100.00;101053.13;4814863;29;20038;-79
2021/12/11 15:08:12;;;;;;;55.55;30.23;;;;;;;0.64;100.00;101074.31;4864718;29;20036;-79
2021/12/11 15:10:39;;;;;;;48.22;27.40;;;;;;;0.62;100.00;101063.81;4849444;29;20112;-79
2021/12/11 15:13:05;;;;;;;48.83;26.70;;;;;;;0.57;100.00;101067.84;4864757;29;20029;-79
2021/12/11 15:15:31;;;;;;;44.42;26.50;;;;;;;0.58;100.00;101067.72;4849726;29;20033;-79
2021/12/11 15:17:58;;;;;;;47.25;26.58;;;;;;;0.34;100.00;101048.59;4849661;29;20037;-80
2021/12/11 15:20:38;;;;;;;48.75;27.92;;;;;;;0.55;100.00;101081.19;4860111;29;20150;-80
2021/12/11 15:23:04;;;;;;;45.75;26.17;;;;;;;0.53;100.00;101074.34;4870362;29;20121;-82
2021/12/11 15:25:31;;;;;;;48.35;26.63;;;;;;;0.32;100.00;101043.41;4840509;29;20049;-82
2021/12/11 15:27:57;;;;;;;48.08;26.65;;;;;;;0.55;100.00;101091.78;4822917;29;20042;-81
2021/12/11 15:30:31;;;;;;;45.85;26.27;;;;;;;0.04;100.00;101005.16;4829720;29;20038;-80
2021/12/11 15:32:57;;;;;;;44.35;25.23;;;;;;;0.53;100.00;101084.94;4838649;29;20026;-82
2021/12/11 15:35:37;;;;;;;46.88;25.88;;;;;;;0.34;100.00;101059.16;4862519;29;20039;-81
2021/12/11 15:38:05;;;;;;;44.00;25.15;;;;;;;0.38;100.00;101081.75;4854407;29;20014;-81
2021/12/11 15:40:32;;;;;;;50.25;26.67;;;;;;;0.42;100.00;101093.78;4859596;29;20025;-79
2021/12/11 15:43:00;;;;;;;47.30;26.70;;;;;;;0.39;100.00;101116.03;4863976;29;20030;-80
2021/12/11 15:45:26;;;;;;;44.83;25.20;;;;;;;0.40;100.00;101117.75;4846840;29;20137;-80